createdAt,value
2017-07-29T15:11:28.253Z,26.60
2017-07-29T15:20:04.320Z,26.50
2017-07-29T15:24:51.009Z,26.60
2017-07-29T15:29:38.011Z,26.50
2017-07-29T15:34:24.738Z,26.50
2017-07-29T15:39:11.456Z,26.40
2017-07-29T15:43:58.098Z,26.30
2017-07-29T15:48:44.718Z,26.00
2017-07-29T15:53:31.352Z,26.00
2017-07-29T15:58:19.075Z,25.70
2017-07-29T16:03:05.692Z,25.70
2017-07-29T16:07:52.326Z,25.70
2017-07-29T16:12:38.953Z,25.60
2017-07-29T16:17:26.323Z,25.80
2017-07-29T16:22:12.966Z,25.70
2017-07-29T16:26:59.572Z,25.60
2017-07-29T16:31:46.201Z,25.50
2017-07-29T16:36:32.818Z,25.60
2017-07-29T16:41:19.483Z,25.60
2017-07-29T16:46:06.236Z,25.50
2017-07-29T16:50:52.959Z,25.70
2017-07-29T16:55:39.754Z,25.70
2017-07-29T17:00:26.858Z,25.60
2017-07-29T17:05:13.483Z,25.40
2017-07-29T17:10:00.123Z,25.40
2017-07-29T17:14:46.786Z,25.30
2017-07-29T17:19:33.441Z,25.10
2017-07-29T17:24:20.078Z,25.10
2017-07-29T17:29:07.009Z,25.00
2017-07-29T17:33:53.624Z,25.00
2017-07-29T17:38:40.272Z,24.80
2017-07-29T17:43:27.714Z,24.60
2017-07-29T17:48:15.105Z,24.40
2017-07-29T17:53:01.808Z,24.40
2017-07-29T17:57:48.485Z,24.50
2017-07-29T18:02:35.988Z,25.00
2017-07-29T18:07:22.656Z,24.90
2017-07-29T18:12:09.301Z,25.60
2017-07-29T18:16:55.932Z,25.80
2017-07-29T18:21:43.080Z,25.60
2017-07-29T18:26:29.744Z,25.30
2017-07-29T18:31:17.139Z,24.60
2017-07-29T18:36:03.765Z,24.60
2017-07-29T18:40:50.507Z,24.20
2017-07-29T18:45:37.188Z,23.90
2017-07-29T18:50:23.885Z,23.60
2017-07-29T18:55:10.921Z,23.30
2017-07-29T18:59:57.567Z,23.10
2017-07-29T19:04:44.229Z,22.90
2017-07-29T19:09:31.638Z,22.50
2017-07-29T19:14:18.253Z,22.50
2017-07-29T19:19:04.911Z,22.30
2017-07-29T19:23:52.644Z,21.90
2017-07-29T19:28:39.234Z,21.90
2017-07-29T19:33:25.887Z,21.90
2017-07-29T19:38:13.267Z,21.50
2017-07-29T19:43:07.033Z,21.50
2017-07-29T19:47:53.666Z,21.40
2017-07-29T19:52:40.310Z,21.20
2017-07-29T19:57:26.983Z,21.10
2017-07-29T20:02:13.659Z,21.10
2017-07-29T20:07:00.306Z,21.00
2017-07-29T20:11:46.949Z,20.90
2017-07-29T20:16:33.731Z,20.80
2017-07-29T20:21:20.357Z,20.60
2017-07-29T20:26:07.072Z,20.50
2017-07-29T20:30:54.015Z,20.40
2017-07-29T20:35:40.870Z,20.30
2017-07-29T20:40:29.234Z,20.10
2017-07-29T20:45:16.025Z,20.00
2017-07-29T20:50:02.715Z,19.80
2017-07-29T20:54:49.422Z,19.70
2017-07-29T20:59:36.073Z,19.70
2017-07-29T21:04:23.512Z,19.60
2017-07-29T21:09:10.143Z,19.50
2017-07-29T21:13:56.956Z,19.40
2017-07-29T21:18:43.613Z,19.30
2017-07-29T21:23:31.075Z,19.00
2017-07-29T21:28:17.839Z,18.90
2017-07-29T21:33:04.629Z,18.90
2017-07-29T21:37:51.562Z,19.00
2017-07-29T21:42:38.198Z,18.90
2017-07-29T21:47:24.932Z,19.00
2017-07-29T21:52:11.877Z,18.80
2017-07-29T21:56:58.485Z,18.60
2017-07-29T22:01:45.226Z,18.40
2017-07-29T22:06:31.914Z,18.20
2017-07-29T22:11:18.569Z,18.10
2017-07-29T22:16:05.481Z,18.10
2017-07-29T22:20:52.220Z,18.10
2017-07-29T22:25:39.018Z,18.10
2017-07-29T22:30:25.615Z,18.20
2017-07-29T22:35:12.227Z,18.00
2017-07-29T22:39:59.199Z,18.00
2017-07-29T22:44:46.013Z,18.20
2017-07-29T22:49:32.650Z,18.20
2017-07-29T22:54:19.423Z,18.30
2017-07-29T22:59:06.115Z,18.30
2017-07-29T23:03:53.514Z,17.90
2017-07-29T23:08:40.451Z,17.90
2017-07-29T23:13:27.160Z,18.00
2017-07-29T23:18:13.806Z,17.80
2017-07-29T23:23:01.256Z,18.00
2017-07-29T23:27:48.629Z,17.90
2017-07-29T23:32:35.278Z,17.90
2017-07-29T23:37:21.908Z,17.90
2017-07-29T23:42:08.524Z,18.00
2017-07-29T23:46:55.449Z,17.90
2017-07-29T23:51:42.286Z,17.80
2017-07-29T23:56:28.896Z,17.70
